Lake Country Regional Airport
KW63 : now visible

Airfield :











YOU CAN JOIN US ON...

 
LOGIN :

Register | Disclaimer

   EN    FR    IT 

 









Legend :    VFR   Marginal VFR   IFR   Intensive IFR   Very Intensive IFR
Visi :
Ceiling :
>= 8 km
>= 3000ft
5 to 8 km
1000 to 3000 ft
1500m to 5 km
500 to 1000 ft
800 to 1500m
200 to 500 ft
< 800m
< 200 ft
Symbols :   Thunderstorms  Fog  Heavy snow  Heavy precipitations  Wind > 20 kt






- Airport Elevation : 421 ft


KW63 - Lake Country Regional

CURRENT METAR :
  • 020455Z AUTO 07004KT 10SM BKN110 22/22 A2988 RMK AO1

EXPIRED METARs :
  • 020435Z AUTO 02003KT 10SM SCT036 SCT046 OVC120 22/22 A2989 RMK AO1
  • 020415Z AUTO 01005KT 10SM SCT022 BKN041 BKN048 23/20 A2989 RMK AO1
  • 020355Z AUTO 36007KT 10SM SCT013 BKN043 OVC070 23/21 A2990 RMK AO1
  • 020335Z AUTO 34004KT 10SM SCT012 SCT048 BKN050 23/22 A2990 RMK AO1
  • 020315Z AUTO 03004KT 10SM CLR 23/22 A2988 RMK AO1
  • 020255Z AUTO 03003KT 10SM CLR 23/22 A2988 RMK AO1
  • 020235Z AUTO 08004KT 10SM CLR 24/21 A2988 RMK AO1
  • 020215Z AUTO 08005KT 10SM CLR 24/21 A2987 RMK AO1

TAF N/A



MET'MAP, your aeronautical weather chart ! - Copyright ORBIFLY December 2007 - Disclaimer

ORBIFLY MET'MAP TEAM :

Programming & Development : Alexandra Zaïnal
Concept & original design : Baudouin d'Aumeries
Assistance for programming : Marc-Olivier Méhu
Technical & hardware support : Manuel Goepfert

Contact : metmap@orbifly.com




SOURCES & CREDITS :

   NOAA       Earth
Advisory